Ajo, Arizona
Current Conditions -  °F | °C
As of 12:56 AM on Monday 26 Jan 2015 (Local Time) from KGXF Reporting Station
Clear Clear  
Wind Chill: 51°   Ceiling: Unl
Heat Index: 51°   Visibility: 10mi
Dew Point: 22°   Wind: 1mph
Humidity: 32%   Direction: 260°W
Pressure: 30.08"   Gusts: NA
Location:  32.37°N, 112.86°W
Report Text: KGXF 260756Z AUTO 26001KT 10SM CLR 10/M06 A3008 RMK AO2 SLP181 T01031058
Loading
Personal Weather Stations






























Interactive Weather Map New forecast layout! Learn more

10-Day Weather Forecast

Advertisements
Track Severe Weather on mobile